Bayfield, CO

11:33 AM MDT on July 28, 2017 (GMT -0600)
Vallecito Lake | | Change Station

Elev 7762 ft 37.45 °N, 107.55 °W | Updated 38 days ago

Partly Cloudy
Partly Cloudy
52.3 °F
Feels Like 52.3 °F
N
0.0
Wind Variable Wind from SSE
Gusts 0.0 mph

Today
High -- | Low -- °F
--% Chance of Precip.
Yesterday
High -- | Low -- °F
Precip. -- in
Pressure 30.02 in
Visibility 10.0 miles
Clouds Clear
Dew Point 44.3 °F
Humidity 74%
Rainfall 0.09 in
Snow Depth Not available.
6:11 AM 8:21 PM
Waxing Crescent, 32% visible
METAR KDRO 281653Z AUTO 23004KT 10SM CLR 21/13 A3029 RMK AO2 SLP166 T02110133
Pressure 30.02 in
Visibility 10.0 miles
Clouds Clear
Dew Point 44.3 °F
Humidity 74%
Rainfall 0.09 in
Snow Depth Not available.
6:11 AM 8:21 PM
Waxing Crescent, 32% visible
METAR KDRO 281653Z AUTO 23004KT 10SM CLR 21/13 A3029 RMK AO2 SLP166 T02110133

Get Severe Weather Alerts

Thanks for signing up!

Be on the lookout for a verification email in your inbox.

You'll start receiving the daily forecast at 6 AM.

×

10-Day Weather Forecast

Almanac

Astronomy

Jul. 28, 2017 Rise Set
Actual Time
Civil Twilight
Nautical Twilight
Astronomical Twilight
Moon
Length of Visible Light
Length of Day
Tomorrow will be .
, % of the Moon is Illuminated

Today's Extremes

State Highs State Lows

Community

WunderPhotos

Category 6

Welcome to Category 6. This is the collective home for Weather Underground's featured writeups by Dr. Jeff Masters (right), Bob Henson (left), Chris Burt, and other regular contributors.

Nearby

Air Quality

  Air Quality AQ Index Pollutant
Not available.

Snow Depth

Station Depth Elevation

Earthquake Activity

City Distance Mag. Time & Date
Minimum magnitude displayed is 2.5.

Coastal Water Temperatures

Place Temperature

Stations

Nearby Weather Stations

Station Location Temp. Windchill Dew Point Humidity Wind Precip. Elev Updated Type
                   

Watches & Warnings

There are currently no watches in effect.